createdAt,value
2019-06-10T00:00:55.255Z,97336.24
2019-06-10T00:04:06.358Z,97338.31
2019-06-10T00:07:11.985Z,97332.55
2019-06-10T00:10:21.331Z,97323.64
2019-06-10T00:13:31.256Z,97326.88
2019-06-10T00:16:37.454Z,97331.55
2019-06-10T00:19:44.048Z,97326.42
2019-06-10T00:22:51.529Z,97319.37
2019-06-10T00:26:01.284Z,97302.78
2019-06-10T00:29:07.466Z,97305.60
2019-06-10T00:32:14.468Z,97315.27
2019-06-10T00:35:21.306Z,97305.50
2019-06-10T00:38:27.905Z,97298.82
2019-06-10T00:41:34.383Z,97299.12
2019-06-10T00:44:41.677Z,97283.83
2019-06-10T00:47:50.776Z,97288.03
2019-06-10T00:51:02.253Z,97285.09
2019-06-10T00:54:08.641Z,97274.90
2019-06-10T00:57:16.321Z,97274.34
2019-06-10T01:00:25.744Z,97286.98
2019-06-10T01:03:31.515Z,97291.35
2019-06-10T01:06:38.457Z,97277.19
2019-06-10T01:09:45.033Z,97286.08
2019-06-10T01:12:51.599Z,97282.41
2019-06-10T01:15:58.106Z,97275.77
2019-06-10T01:19:05.761Z,97271.64
2019-06-10T01:22:13.900Z,97260.47
2019-06-10T01:25:21.655Z,97258.48
2019-06-10T01:28:31.207Z,97249.51
2019-06-10T01:31:37.195Z,97245.02
2019-06-10T01:34:43.690Z,97235.16
2019-06-10T01:37:52.016Z,97239.45
2019-06-10T01:40:58.307Z,97235.72
2019-06-10T01:44:06.381Z,97225.28
2019-06-10T01:47:14.326Z,97225.02
2019-06-10T01:50:21.858Z,97219.50
2019-06-10T01:53:31.212Z,97216.81
2019-06-10T01:56:38.190Z,97214.52
2019-06-10T01:59:44.815Z,97210.44
2019-06-10T02:02:52.416Z,97213.44
2019-06-10T02:06:01.485Z,97211.97
2019-06-10T02:09:12.093Z,97202.87
2019-06-10T02:12:19.113Z,97196.78
2019-06-10T02:15:27.195Z,97195.52
2019-06-10T02:18:33.829Z,97198.07
2019-06-10T02:21:41.710Z,97193.31
2019-06-10T02:24:50.539Z,97186.30
2019-06-10T02:27:56.635Z,97186.83
2019-06-10T02:31:04.028Z,97173.60
2019-06-10T02:34:13.263Z,97175.71
2019-06-10T02:37:24.147Z,97182.78
2019-06-10T02:40:32.090Z,97182.98
2019-06-10T02:43:38.132Z,97176.02
2019-06-10T02:46:44.793Z,97185.91
2019-06-10T02:49:59.039Z,97183.83
2019-06-10T02:52:59.668Z,97185.83
2019-06-10T02:56:08.602Z,97181.95
2019-06-10T02:59:20.409Z,97184.68
2019-06-10T03:02:31.833Z,97176.20
2019-06-10T03:05:41.069Z,97177.25
2019-06-10T03:08:43.677Z,97175.66
2019-06-10T03:11:53.405Z,97177.64
2019-06-10T03:14:58.896Z,97174.88
2019-06-10T03:18:05.398Z,97170.66
2019-06-10T03:21:12.489Z,97163.55
2019-06-10T03:24:19.178Z,97166.98
2019-06-10T03:27:26.584Z,97168.63
2019-06-10T03:30:46.772Z,97176.78
2019-06-10T03:33:47.214Z,97178.50
2019-06-10T03:36:50.439Z,97178.82
2019-06-10T03:39:57.022Z,97175.48
2019-06-10T03:43:03.446Z,97178.72
2019-06-10T03:46:10.298Z,97180.37
2019-06-10T03:49:17.122Z,97181.55
2019-06-10T03:52:25.595Z,97171.47
2019-06-10T03:55:33.071Z,97179.80
2019-06-10T03:58:43.147Z,97173.50
2019-06-10T04:01:47.908Z,97170.66
2019-06-10T04:04:54.484Z,97180.66
2019-06-10T04:08:02.136Z,97181.70
2019-06-10T04:11:08.811Z,97184.16
2019-06-10T04:14:17.580Z,97174.68
2019-06-10T04:17:25.733Z,97172.31
2019-06-10T04:20:33.177Z,97177.64
2019-06-10T04:23:42.145Z,97161.33
2019-06-10T04:26:48.084Z,97161.79
2019-06-10T04:29:54.611Z,97150.69
2019-06-10T04:33:02.309Z,97147.20
2019-06-10T04:36:08.995Z,97146.77
2019-06-10T04:39:15.726Z,97154.17
2019-06-10T04:42:23.174Z,97154.34
2019-06-10T04:45:32.450Z,97152.98
2019-06-10T04:48:42.426Z,97151.09
2019-06-10T04:51:48.462Z,97153.38
2019-06-10T04:54:55.038Z,97147.69
2019-06-10T04:58:02.515Z,97152.73
2019-06-10T05:01:09.139Z,97139.53
2019-06-10T05:04:15.772Z,97131.25
2019-06-10T05:07:24.067Z,97134.79
2019-06-10T05:10:33.242Z,97133.28
2019-06-10T05:13:42.623Z,97145.86
2019-06-10T05:16:48.359Z,97145.13
2019-06-10T05:19:54.966Z,97154.62
2019-06-10T05:23:02.868Z,97148.05
2019-06-10T05:26:09.622Z,97154.97
2019-06-10T05:29:16.106Z,97157.24
2019-06-10T05:32:23.272Z,97150.13
2019-06-10T05:35:31.601Z,97157.87
2019-06-10T05:38:38.808Z,97150.73
2019-06-10T05:41:45.297Z,97151.37
2019-06-10T05:44:52.457Z,97147.37
2019-06-10T05:48:02.199Z,97141.19
2019-06-10T05:51:08.381Z,97133.81
2019-06-10T05:54:15.232Z,97138.81
2019-06-10T05:57:23.918Z,97136.80
2019-06-10T06:00:32.430Z,97132.92
2019-06-10T06:03:38.175Z,97128.30
2019-06-10T06:06:45.193Z,97126.91
2019-06-10T06:09:53.270Z,97137.21
2019-06-10T06:12:59.827Z,97137.70
2019-06-10T06:16:06.304Z,97140.07
2019-06-10T06:19:13.834Z,97150.37
2019-06-10T06:22:22.134Z,97152.23
2019-06-10T06:25:30.472Z,97154.97
2019-06-10T06:28:38.186Z,97158.63
2019-06-10T06:31:47.851Z,97150.22
2019-06-10T06:34:54.351Z,97150.22
2019-06-10T06:38:02.624Z,97144.20
2019-06-10T06:41:09.368Z,97150.70
2019-06-10T06:44:15.825Z,97149.29
2019-06-10T06:47:22.742Z,97147.53
2019-06-10T06:50:30.827Z,97143.37
2019-06-10T06:53:45.475Z,97150.36
2019-06-10T06:56:45.902Z,97158.05
2019-06-10T06:59:53.730Z,97151.78
2019-06-10T07:03:00.384Z,97151.78
2019-06-10T07:06:07.098Z,97143.37
2019-06-10T07:09:13.890Z,97148.95
2019-06-10T07:12:24.813Z,97147.16
2019-06-10T07:15:46.553Z,97140.42
2019-06-10T07:18:50.601Z,97132.94
2019-06-10T07:22:11.438Z,97140.75
2019-06-10T07:25:12.393Z,97137.16
2019-06-10T07:28:19.597Z,97133.45
2019-06-10T07:31:28.069Z,97127.61
2019-06-10T07:34:36.734Z,97122.05
2019-06-10T07:37:44.469Z,97115.52
2019-06-10T07:40:53.089Z,97111.98
2019-06-10T07:43:59.694Z,97111.27
2019-06-10T07:47:06.166Z,97109.56
2019-06-10T07:50:13.359Z,97105.66
2019-06-10T07:53:22.112Z,97099.86
2019-06-10T07:56:33.804Z,97085.62
2019-06-10T07:59:37.431Z,97089.63
2019-06-10T08:02:45.898Z,97092.23
2019-06-10T08:05:52.649Z,97083.36
2019-06-10T08:08:59.364Z,97086.41
2019-06-10T08:12:06.165Z,97089.37
2019-06-10T08:15:13.001Z,97095.16
2019-06-10T08:18:22.543Z,97091.92
2019-06-10T08:21:29.175Z,97092.97
2019-06-10T08:24:37.234Z,97098.40
2019-06-10T08:27:47.178Z,97097.84
2019-06-10T08:30:53.373Z,97101.05
2019-06-10T08:34:02.752Z,97090.75
2019-06-10T08:37:08.327Z,97105.21
2019-06-10T08:40:14.863Z,97111.48
2019-06-10T08:43:22.674Z,97119.47
2019-06-10T08:46:29.320Z,97122.27
2019-06-10T08:49:37.071Z,97122.91
2019-06-10T08:53:00.979Z,97127.74
2019-06-10T08:55:55.305Z,97126.97
2019-06-10T08:59:03.274Z,97132.64
2019-06-10T09:02:12.978Z,97126.52
2019-06-10T09:05:23.041Z,97126.78
2019-06-10T09:08:28.894Z,97126.13
2019-06-10T09:11:35.521Z,97130.52
2019-06-10T09:14:44.011Z,97130.96
2019-06-10T09:17:56.471Z,97137.56
2019-06-10T09:21:03.266Z,97138.11
2019-06-10T09:24:12.917Z,97140.23
2019-06-10T09:27:26.675Z,97128.73
2019-06-10T09:30:33.197Z,97135.08
2019-06-10T09:33:39.651Z,97131.45
2019-06-10T09:36:50.073Z,97140.06
2019-06-10T09:39:59.418Z,97141.98
2019-06-10T09:43:03.464Z,97144.53
2019-06-10T09:46:12.644Z,97150.80
2019-06-10T09:49:22.277Z,97152.55
2019-06-10T09:52:29.630Z,97152.69
2019-06-10T09:55:36.266Z,97160.80
2019-06-10T09:58:46.276Z,97158.16
2019-06-10T10:01:57.579Z,97143.70
2019-06-10T10:04:59.322Z,97142.89
2019-06-10T10:08:06.534Z,97135.50
2019-06-10T10:11:13.271Z,97128.30
2019-06-10T10:14:19.731Z,97139.05
2019-06-10T10:17:26.112Z,97145.84
2019-06-10T10:20:34.056Z,97144.79
2019-06-10T10:23:51.177Z,97147.53
2019-06-10T10:26:50.867Z,97150.20
2019-06-10T10:29:57.552Z,97152.58
2019-06-10T10:33:03.914Z,97140.25
2019-06-10T10:36:10.161Z,97137.64
2019-06-10T10:39:16.348Z,97126.95
2019-06-10T10:42:23.728Z,97119.20
2019-06-10T10:45:30.214Z,97117.17
2019-06-10T10:48:36.430Z,97112.69
2019-06-10T10:51:42.940Z,97113.20
2019-06-10T10:54:51.845Z,97107.66
2019-06-10T10:57:58.240Z,97095.54
2019-06-10T11:01:05.015Z,97090.39
2019-06-10T11:04:13.305Z,97073.34
2019-06-10T11:07:19.395Z,97064.25
2019-06-10T11:10:25.659Z,97057.02
2019-06-10T11:13:35.509Z,97055.36
2019-06-10T11:16:43.125Z,97062.12
2019-06-10T11:19:52.723Z,97048.70
2019-06-10T11:22:57.984Z,97039.92
2019-06-10T11:26:05.713Z,97045.58
2019-06-10T11:29:11.918Z,97055.41
2019-06-10T11:32:18.326Z,97053.05
2019-06-10T11:35:24.607Z,97051.20
2019-06-10T11:38:32.939Z,97050.86
2019-06-10T11:41:39.467Z,97037.23
2019-06-10T11:44:46.372Z,97037.94
2019-06-10T11:47:55.473Z,97031.09
2019-06-10T11:51:04.280Z,97029.26
2019-06-10T11:54:12.607Z,97031.16
2019-06-10T11:57:17.880Z,97024.27
2019-06-10T12:00:26.462Z,97022.47
2019-06-10T12:03:32.870Z,97018.29
2019-06-10T12:06:39.403Z,97011.66
2019-06-10T12:09:45.944Z,97009.52
2019-06-10T12:12:55.454Z,97010.27
2019-06-10T12:16:50.786Z,97009.27
2019-06-10T12:19:08.349Z,96999.98
2019-06-10T12:22:14.647Z,96991.78
2019-06-10T12:25:32.411Z,96981.09
2019-06-10T12:28:28.911Z,96967.06
2019-06-10T12:31:35.556Z,96962.36
2019-06-10T12:34:45.887Z,96949.58
2019-06-10T12:37:51.240Z,96943.74
2019-06-10T12:41:03.223Z,96953.92
2019-06-10T12:44:07.573Z,96949.19
2019-06-10T12:47:13.776Z,96952.78
2019-06-10T12:50:20.758Z,96944.23
2019-06-10T12:53:26.992Z,96928.75
2019-06-10T12:56:33.295Z,96939.77
2019-06-10T12:59:39.479Z,96945.39
2019-06-10T13:02:46.168Z,96935.83
2019-06-10T13:05:53.494Z,96933.97
2019-06-10T13:10:07.938Z,96921.64
2019-06-10T13:13:15.795Z,96921.25
2019-06-10T13:16:22.183Z,96918.00
2019-06-10T13:19:29.295Z,96918.44
2019-06-10T13:22:35.943Z,96907.58
2019-06-10T13:25:51.235Z,96917.69
2019-06-10T13:28:52.457Z,96915.22
2019-06-10T13:31:58.227Z,96903.45
2019-06-10T13:35:07.817Z,96894.80
2019-06-10T13:38:14.042Z,96885.73
2019-06-10T13:41:22.765Z,96885.55
2019-06-10T13:44:32.097Z,96879.75
2019-06-10T13:47:37.641Z,96871.38
2019-06-10T13:50:43.962Z,96865.45
2019-06-10T13:53:50.230Z,96864.80
2019-06-10T13:56:59.051Z,96861.70
2019-06-10T14:00:08.483Z,96862.20
2019-06-10T14:03:16.330Z,96863.48
2019-06-10T14:06:39.573Z,96858.58
2019-06-10T14:09:30.426Z,96851.67
2019-06-10T14:12:36.952Z,96848.39
2019-06-10T14:15:43.096Z,96845.10
2019-06-10T14:18:49.658Z,96845.27
2019-06-10T14:22:22.835Z,96838.41
2019-06-10T14:25:28.371Z,96851.66
2019-06-10T14:28:40.617Z,96855.14
2019-06-10T14:31:45.115Z,96853.47
2019-06-10T14:34:52.619Z,96846.92
2019-06-10T14:37:58.618Z,96838.03
2019-06-10T14:41:06.501Z,96832.59
2019-06-10T14:44:16.120Z,96824.74
2019-06-10T14:47:22.966Z,96816.52
2019-06-10T14:50:28.779Z,96822.93
2019-06-10T14:53:35.030Z,96818.14
2019-06-10T14:56:52.555Z,96820.14
2019-06-10T14:59:49.328Z,96804.39
2019-06-10T15:02:55.518Z,96809.44
2019-06-10T15:06:03.165Z,96816.01
2019-06-10T15:09:13.685Z,96812.41
2019-06-10T15:12:22.618Z,96799.61
2019-06-10T15:15:32.922Z,96793.19
2019-06-10T15:18:38.756Z,96783.33
2019-06-10T15:21:45.006Z,96778.97
2019-06-10T15:24:53.222Z,96772.07
2019-06-10T15:27:59.073Z,96770.31
2019-06-10T15:31:08.249Z,96763.52
2019-06-10T15:38:52.547Z,96762.21
2019-06-10T15:41:58.913Z,96758.22
2019-06-10T15:45:09.809Z,96754.06
2019-06-10T15:48:18.265Z,96751.44
2019-06-10T15:51:26.010Z,96746.53
2019-06-10T15:54:33.384Z,96738.64
2019-06-10T15:57:43.103Z,96736.03
2019-06-10T16:00:47.701Z,96740.84
2019-06-10T16:03:54.041Z,96741.31
2019-06-10T16:07:02.497Z,96740.48
2019-06-10T16:10:12.813Z,96742.64
2019-06-10T16:13:21.337Z,96734.38
2019-06-10T16:16:27.523Z,96740.02
2019-06-10T16:19:33.732Z,96729.47
2019-06-10T16:22:39.961Z,96729.80
2019-06-10T16:25:46.079Z,96724.20
2019-06-10T16:28:52.360Z,96722.00
2019-06-10T16:31:58.508Z,96736.63
2019-06-10T16:35:06.913Z,96746.48
2019-06-10T16:38:13.367Z,96743.62
2019-06-10T16:41:21.659Z,96750.13
2019-06-10T16:44:28.341Z,96746.37
2019-06-10T16:47:37.222Z,96751.30
2019-06-10T16:50:47.033Z,96759.04
2019-06-10T16:53:52.962Z,96752.95
2019-06-10T16:56:59.309Z,96774.72
2019-06-10T17:00:11.286Z,96796.59
2019-06-10T17:03:14.698Z,96808.98
2019-06-10T17:06:22.454Z,96814.17
2019-06-10T17:09:29.524Z,96812.63
2019-06-10T17:12:35.940Z,96804.02
2019-06-10T17:15:46.824Z,96793.88
2019-06-10T17:18:53.196Z,96765.95
2019-06-10T17:22:01.018Z,96753.37
2019-06-10T17:25:12.967Z,96747.93
2019-06-10T17:28:20.185Z,96744.22
2019-06-10T17:31:30.533Z,96742.95
2019-06-10T17:34:34.862Z,96729.39
2019-06-10T17:37:43.205Z,96725.48
2019-06-10T17:40:52.112Z,96744.95
2019-06-10T17:43:59.509Z,96738.23
2019-06-10T17:47:08.808Z,96742.94
2019-06-10T17:50:15.143Z,96754.37
2019-06-10T17:53:22.392Z,96745.89
2019-06-10T17:56:29.826Z,96734.22
2019-06-10T17:59:37.277Z,96749.98
2019-06-10T18:02:43.818Z,96745.64
2019-06-10T18:05:53.063Z,96752.09
2019-06-10T18:08:58.405Z,96765.08
2019-06-10T18:12:07.855Z,96788.73
2019-06-10T18:19:56.580Z,96779.99
2019-06-10T18:23:05.231Z,96777.16
2019-06-10T18:26:12.389Z,96814.13
2019-06-10T18:29:22.938Z,96834.86
2019-06-10T18:32:32.446Z,96823.63
2019-06-10T18:35:38.135Z,96798.84
2019-06-10T18:38:44.750Z,96793.34
2019-06-10T18:41:52.893Z,96817.05
2019-06-10T18:45:02.687Z,96863.02
2019-06-10T18:48:12.536Z,96854.56
2019-06-10T18:51:18.319Z,96832.70
2019-06-10T18:54:24.839Z,96806.97
2019-06-10T18:57:33.524Z,96791.02
2019-06-10T19:00:53.393Z,96786.73
2019-06-10T19:03:47.948Z,96795.70
2019-06-10T19:06:54.430Z,96836.88
2019-06-10T19:10:02.323Z,96873.63
2019-06-10T19:13:09.856Z,96893.48
2019-06-10T19:16:16.329Z,96889.80
2019-06-10T19:19:23.077Z,96869.81
2019-06-10T19:22:30.073Z,96833.41
2019-06-10T19:25:39.732Z,96827.55
2019-06-10T19:28:45.892Z,96823.66
2019-06-10T19:31:52.727Z,96809.03
2019-06-10T19:34:59.388Z,96816.13
2019-06-10T19:38:08.868Z,96840.33
2019-06-10T19:41:15.433Z,96838.00
2019-06-10T19:44:23.470Z,96808.81
2019-06-10T19:47:32.588Z,96784.47
2019-06-10T19:50:39.407Z,96788.01
2019-06-10T19:53:46.615Z,96781.67
2019-06-10T19:56:54.305Z,96782.22
2019-06-10T20:00:10.512Z,96769.95
2019-06-10T20:03:10.806Z,96759.68
2019-06-10T20:06:17.268Z,96748.24
2019-06-10T20:09:23.939Z,96752.05
2019-06-10T20:12:32.437Z,96745.55
2019-06-10T20:15:39.478Z,96738.80
2019-06-10T20:18:49.326Z,96731.84
2019-06-10T20:21:54.335Z,96727.76
2019-06-10T20:25:03.653Z,96717.27
2019-06-10T20:28:09.256Z,96705.61
2019-06-10T20:31:15.689Z,96727.53
2019-06-10T20:34:24.402Z,96745.69
2019-06-10T20:37:32.528Z,96755.58
2019-06-10T20:40:38.610Z,96758.75
2019-06-10T20:43:47.290Z,96751.87
2019-06-10T20:46:53.882Z,96746.63
2019-06-10T20:50:03.093Z,96739.95
2019-06-10T20:53:15.503Z,96721.75
2019-06-10T20:56:20.126Z,96703.83
2019-06-10T20:59:26.213Z,96710.13
2019-06-10T21:02:33.259Z,96725.72
2019-06-10T21:05:45.598Z,96762.34
2019-06-10T21:08:54.376Z,96788.53
2019-06-10T21:12:02.061Z,96785.19
2019-06-10T21:15:09.643Z,96782.86
2019-06-10T21:18:16.402Z,96783.11
2019-06-10T21:21:24.895Z,96777.55
2019-06-10T21:24:32.329Z,96780.81
2019-06-10T21:27:38.866Z,96775.56
2019-06-10T21:30:49.660Z,96782.83
2019-06-10T21:33:55.736Z,96790.29
2019-06-10T21:37:03.159Z,96781.92
2019-06-10T21:40:13.503Z,96767.30
2019-06-10T21:43:22.200Z,96765.39
2019-06-10T21:46:29.632Z,96770.89
2019-06-10T21:49:36.040Z,96792.26
2019-06-10T21:52:45.780Z,96797.38
2019-06-10T21:55:54.901Z,96785.22
2019-06-10T21:59:02.412Z,96773.89
2019-06-10T22:02:08.892Z,96773.43
2019-06-10T22:05:18.847Z,96762.80
2019-06-10T22:08:25.365Z,96752.44
2019-06-10T22:11:32.080Z,96758.31
2019-06-10T22:14:39.029Z,96760.68
2019-06-10T22:17:46.250Z,96767.16
2019-06-10T22:20:57.253Z,96772.49
2019-06-10T22:24:02.370Z,96763.27
2019-06-10T22:27:09.079Z,96751.70
2019-06-10T22:30:15.801Z,96772.54
2019-06-10T22:33:22.721Z,96763.97
2019-06-10T22:36:29.321Z,96766.06
2019-06-10T22:39:35.665Z,96766.10
2019-06-10T22:42:42.247Z,96767.80
2019-06-10T22:45:53.801Z,96762.42
2019-06-10T22:48:59.550Z,96755.91
2019-06-10T22:52:06.664Z,96744.76
2019-06-10T22:55:13.826Z,96736.94
2019-06-10T22:58:23.467Z,96735.98
2019-06-10T23:01:37.448Z,96717.60
2019-06-10T23:04:38.894Z,96708.72
2019-06-10T23:07:45.405Z,96707.92
2019-06-10T23:10:53.788Z,96712.73
2019-06-10T23:14:00.077Z,96706.86
2019-06-10T23:17:08.625Z,96709.57
2019-06-10T23:20:15.206Z,96704.23
2019-06-10T23:23:23.295Z,96703.48
2019-06-10T23:26:29.792Z,96706.91
2019-06-10T23:29:36.330Z,96701.53
2019-06-10T23:32:43.331Z,96703.72
2019-06-10T23:35:50.316Z,96723.27
2019-06-10T23:38:57.134Z,96714.34
2019-06-10T23:42:04.201Z,96725.56
2019-06-10T23:45:12.882Z,96734.80
2019-06-10T23:48:19.507Z,96720.98
2019-06-10T23:51:26.046Z,96722.30
2019-06-10T23:54:32.514Z,96718.62
2019-06-10T23:57:39.268Z,96717.11
